createdAt,value
2019-01-18T00:00:40.411Z,92.87
2019-01-18T00:01:37.613Z,92.16
2019-01-18T00:02:34.538Z,92.61
2019-01-18T00:03:31.623Z,93.25
2019-01-18T00:04:28.675Z,93.33
2019-01-18T00:05:25.743Z,93.31
2019-01-18T00:06:22.807Z,94.51
2019-01-18T00:07:19.863Z,93.48
2019-01-18T00:08:17.934Z,94.45
2019-01-18T00:09:14.001Z,93.23
2019-01-18T00:10:11.070Z,93.31
2019-01-18T00:11:08.130Z,92.61
2019-01-18T00:12:06.187Z,93.34
2019-01-18T00:13:03.263Z,93.39
2019-01-18T00:13:59.323Z,94.53
2019-01-18T00:14:57.423Z,93.46
2019-01-18T00:15:53.653Z,93.37
2019-01-18T00:16:50.536Z,93.28
2019-01-18T00:17:47.622Z,93.27
2019-01-18T00:18:44.667Z,93.21
2019-01-18T00:19:41.750Z,93.16
2019-01-18T00:20:38.878Z,93.18
2019-01-18T00:21:35.879Z,93.04
2019-01-18T00:22:32.933Z,92.91
2019-01-18T00:23:30.006Z,92.52
2019-01-18T00:24:27.060Z,92.60
2019-01-18T00:25:24.126Z,92.52
2019-01-18T00:26:21.249Z,92.41
2019-01-18T00:27:18.253Z,92.24
2019-01-18T00:28:15.323Z,92.10
2019-01-18T00:29:12.399Z,91.95
2019-01-18T00:30:09.621Z,91.13
2019-01-18T00:31:06.534Z,91.97
2019-01-18T00:32:03.612Z,91.28
2019-01-18T00:33:00.668Z,90.90
2019-01-18T00:33:57.748Z,91.00
2019-01-18T00:34:54.814Z,90.30
2019-01-18T00:35:51.917Z,90.67
2019-01-18T00:36:48.936Z,90.47
2019-01-18T00:37:45.992Z,91.15
2019-01-18T00:38:43.375Z,90.70
2019-01-18T00:39:40.142Z,89.97
2019-01-18T00:40:37.208Z,89.42
2019-01-18T00:41:34.268Z,90.80
2019-01-18T00:42:31.320Z,89.45
2019-01-18T00:43:28.403Z,89.50
2019-01-18T00:44:25.468Z,89.30
2019-01-18T00:45:22.538Z,89.47
2019-01-18T00:46:19.608Z,89.27
2019-01-18T00:47:16.676Z,89.19
2019-01-18T00:48:13.736Z,89.20
2019-01-18T00:49:10.808Z,89.21
2019-01-18T00:50:07.860Z,89.20
2019-01-18T00:51:04.916Z,90.17
2019-01-18T00:52:01.990Z,89.09
2019-01-18T00:52:59.059Z,89.13
2019-01-18T00:53:56.140Z,89.13
2019-01-18T00:54:53.182Z,88.22
2019-01-18T00:55:50.266Z,89.18
2019-01-18T00:56:47.329Z,89.18
2019-01-18T00:57:44.401Z,89.20
2019-01-18T00:58:41.616Z,89.54
2019-01-18T00:59:38.521Z,89.21
2019-01-18T01:00:35.610Z,89.75
2019-01-18T01:01:32.663Z,88.42
2019-01-18T01:02:29.826Z,89.20
2019-01-18T01:03:26.794Z,88.85
2019-01-18T01:04:23.867Z,89.22
2019-01-18T01:05:20.931Z,89.18
2019-01-18T01:06:18.000Z,89.16
2019-01-18T01:07:15.076Z,89.11
2019-01-18T01:08:12.125Z,89.08
2019-01-18T01:09:09.191Z,89.11
2019-01-18T01:10:06.278Z,89.17
2019-01-18T01:11:03.336Z,89.17
2019-01-18T01:12:00.395Z,88.52
2019-01-18T01:12:57.626Z,88.28
2019-01-18T01:13:54.526Z,89.28
2019-01-18T01:14:51.647Z,89.64
2019-01-18T01:15:48.670Z,89.81
2019-01-18T01:16:45.725Z,89.46
2019-01-18T01:17:42.783Z,90.31
2019-01-18T01:18:39.863Z,89.48
2019-01-18T01:19:36.930Z,89.49
2019-01-18T01:20:34.002Z,90.15
2019-01-18T01:21:31.069Z,89.54
2019-01-18T01:22:28.146Z,89.25
2019-01-18T01:23:25.203Z,90.47
2019-01-18T01:24:22.267Z,89.64
2019-01-18T01:25:19.316Z,89.71
2019-01-18T01:26:16.392Z,89.79
2019-01-18T01:27:13.614Z,89.73
2019-01-18T01:28:10.523Z,90.84
2019-01-18T01:29:07.616Z,90.05
2019-01-18T01:30:04.708Z,90.83
2019-01-18T01:31:01.735Z,90.33
2019-01-18T01:31:58.783Z,90.44
2019-01-18T01:32:55.866Z,90.52
2019-01-18T01:33:52.924Z,90.63
2019-01-18T01:34:49.991Z,91.18
2019-01-18T01:35:47.051Z,90.87
2019-01-18T01:36:44.127Z,91.00
2019-01-18T01:37:41.198Z,91.09
2019-01-18T01:38:38.331Z,90.22
2019-01-18T01:39:35.320Z,91.75
2019-01-18T01:40:32.417Z,90.27
2019-01-18T01:41:29.461Z,91.59
2019-01-18T01:42:26.538Z,91.75
2019-01-18T01:43:23.628Z,91.93
2019-01-18T01:44:20.674Z,92.11
2019-01-18T01:45:17.722Z,91.30
2019-01-18T01:46:14.802Z,92.52
2019-01-18T01:47:11.853Z,92.52
2019-01-18T01:48:08.924Z,92.67
2019-01-18T01:49:05.984Z,92.80
2019-01-18T01:50:03.059Z,92.92
2019-01-18T01:51:00.153Z,93.03
2019-01-18T01:51:57.190Z,93.10
2019-01-18T01:52:54.263Z,93.60
2019-01-18T01:53:51.323Z,93.32
2019-01-18T01:54:48.389Z,93.43
2019-01-18T01:55:45.459Z,94.17
2019-01-18T01:56:42.520Z,93.63
2019-01-18T01:57:39.617Z,93.11
2019-01-18T01:58:36.651Z,94.89
2019-01-18T01:59:33.730Z,93.85
2019-01-18T02:00:30.789Z,93.92
2019-01-18T02:01:27.857Z,93.64
2019-01-18T02:02:24.930Z,94.05
2019-01-18T02:03:21.988Z,94.50
2019-01-18T02:04:19.055Z,94.21
2019-01-18T02:05:15.653Z,94.28
2019-01-18T02:06:13.202Z,94.85
2019-01-18T02:07:10.263Z,94.48
2019-01-18T02:08:07.325Z,95.30
2019-01-18T02:09:04.377Z,94.64
2019-01-18T02:10:02.450Z,94.73
2019-01-18T02:10:58.520Z,95.19
2019-01-18T02:11:55.601Z,93.71
2019-01-18T02:12:52.663Z,94.72
2019-01-18T02:13:49.726Z,94.74
2019-01-18T02:14:46.787Z,94.71
2019-01-18T02:15:43.853Z,94.69
2019-01-18T02:16:40.967Z,93.35
2019-01-18T02:17:38.028Z,94.63
2019-01-18T02:18:35.060Z,94.52
2019-01-18T02:19:32.129Z,94.42
2019-01-18T02:20:29.192Z,94.30
2019-01-18T02:21:26.263Z,94.20
2019-01-18T02:22:23.339Z,93.89
2019-01-18T02:23:20.392Z,94.06
2019-01-18T02:24:17.623Z,93.09
2019-01-18T02:25:14.534Z,93.94
2019-01-18T02:26:11.590Z,93.50
2019-01-18T02:27:08.657Z,93.90
2019-01-18T02:28:05.720Z,93.86
2019-01-18T02:29:02.819Z,94.17
2019-01-18T02:29:59.856Z,93.93
2019-01-18T02:30:56.935Z,93.97
2019-01-18T02:31:53.991Z,93.97
2019-01-18T02:32:51.051Z,93.98
2019-01-18T02:33:48.125Z,94.48
2019-01-18T02:34:45.192Z,94.04
2019-01-18T02:35:42.246Z,94.83
2019-01-18T02:36:39.342Z,94.60
2019-01-18T02:37:36.403Z,94.18
2019-01-18T02:38:33.593Z,94.23
2019-01-18T02:39:30.528Z,94.32
2019-01-18T02:40:27.580Z,94.42
2019-01-18T02:41:24.655Z,95.23
2019-01-18T02:42:21.712Z,93.78
2019-01-18T02:43:18.796Z,95.23
2019-01-18T02:44:15.856Z,95.08
2019-01-18T02:45:12.922Z,94.84
2019-01-18T02:46:09.985Z,95.48
2019-01-18T02:47:07.055Z,94.88
2019-01-18T02:48:04.122Z,94.25
2019-01-18T02:49:02.174Z,94.96
2019-01-18T02:49:58.244Z,95.02
2019-01-18T02:50:55.325Z,95.29
2019-01-18T02:51:52.377Z,94.03
2019-01-18T02:52:49.624Z,95.50
2019-01-18T02:53:46.521Z,95.11
2019-01-18T02:54:43.588Z,96.44
2019-01-18T02:55:40.658Z,95.27
2019-01-18T02:56:37.729Z,95.37
2019-01-18T02:57:34.788Z,95.42
2019-01-18T02:58:31.858Z,95.45
2019-01-18T02:59:28.929Z,95.86
2019-01-18T03:00:25.993Z,96.51
2019-01-18T03:01:23.044Z,95.62
2019-01-18T03:02:20.105Z,95.68
2019-01-18T03:03:17.189Z,95.72
2019-01-18T03:04:14.282Z,94.58
2019-01-18T03:05:11.316Z,95.79
2019-01-18T03:06:08.408Z,95.77
2019-01-18T03:07:06.442Z,95.66
2019-01-18T03:08:02.532Z,96.49
2019-01-18T03:08:59.586Z,95.48
2019-01-18T03:09:56.661Z,95.61
2019-01-18T03:10:53.747Z,95.30
2019-01-18T03:11:51.807Z,95.20
2019-01-18T03:12:47.868Z,95.09
2019-01-18T03:13:44.924Z,94.18
2019-01-18T03:14:41.998Z,95.01
2019-01-18T03:15:39.067Z,94.83
2019-01-18T03:16:36.613Z,94.75
2019-01-18T03:17:33.188Z,94.38
2019-01-18T03:18:30.254Z,94.56
2019-01-18T03:19:27.322Z,94.54
2019-01-18T03:20:24.398Z,94.58
2019-01-18T03:21:21.446Z,94.57
2019-01-18T03:22:18.510Z,94.10
2019-01-18T03:23:15.622Z,94.53
2019-01-18T03:24:12.657Z,95.57
2019-01-18T03:25:09.715Z,94.53
2019-01-18T03:26:06.776Z,94.51
2019-01-18T03:27:03.856Z,94.19
2019-01-18T03:28:00.927Z,94.54
2019-01-18T03:28:57.981Z,94.58
2019-01-18T03:29:55.065Z,94.57
2019-01-18T03:30:52.140Z,95.61
2019-01-18T03:31:49.210Z,94.57
2019-01-18T03:32:46.295Z,94.60
2019-01-18T03:33:43.338Z,95.72
2019-01-18T03:34:40.375Z,95.08
2019-01-18T03:35:37.603Z,95.74
2019-01-18T03:36:34.527Z,94.23
2019-01-18T03:37:31.618Z,94.89
2019-01-18T03:38:29.157Z,94.94
2019-01-18T03:39:25.713Z,95.12
2019-01-18T03:40:22.777Z,94.25
2019-01-18T03:41:19.871Z,94.96
2019-01-18T03:42:16.922Z,94.98
2019-01-18T03:43:13.998Z,95.00
2019-01-18T03:44:11.055Z,95.00
2019-01-18T03:45:08.114Z,94.38
2019-01-18T03:46:05.190Z,95.05
2019-01-18T03:47:02.252Z,95.04
2019-01-18T03:47:59.316Z,95.04
2019-01-18T03:48:56.395Z,95.06
2019-01-18T03:49:53.605Z,94.45
2019-01-18T03:50:50.522Z,95.18
2019-01-18T03:51:48.577Z,95.02
2019-01-18T03:52:44.674Z,95.39
2019-01-18T03:53:41.720Z,95.28
2019-01-18T03:54:38.784Z,95.04
2019-01-18T03:55:35.853Z,95.07
2019-01-18T03:56:32.924Z,94.56
2019-01-18T03:57:29.986Z,95.71
2019-01-18T03:58:27.059Z,95.48
2019-01-18T03:59:24.473Z,95.33
2019-01-18T04:00:26.301Z,95.50
2019-01-18T04:01:18.250Z,95.49
2019-01-18T04:02:15.316Z,95.55
2019-01-18T04:03:12.390Z,95.61
2019-01-18T04:04:09.614Z,95.62
2019-01-18T04:05:06.524Z,95.69
2019-01-18T04:06:03.644Z,96.72
2019-01-18T04:07:01.105Z,95.87
2019-01-18T04:07:57.731Z,95.39
2019-01-18T04:08:54.773Z,95.99
2019-01-18T04:09:51.856Z,96.03
2019-01-18T04:10:48.925Z,96.13
2019-01-18T04:11:45.988Z,95.34
2019-01-18T04:12:43.054Z,97.11
2019-01-18T04:13:39.620Z,96.42
2019-01-18T04:14:37.185Z,96.52
2019-01-18T04:15:34.242Z,96.62
2019-01-18T04:16:31.350Z,96.39
2019-01-18T04:17:28.387Z,96.75
2019-01-18T04:18:26.446Z,96.76
2019-01-18T04:19:22.524Z,96.86
2019-01-18T04:20:19.633Z,97.55
2019-01-18T04:21:16.678Z,97.76
2019-01-18T04:22:13.709Z,97.08
2019-01-18T04:23:10.788Z,97.61
2019-01-18T04:24:07.852Z,97.17
2019-01-18T04:25:04.930Z,97.25
2019-01-18T04:26:02.985Z,97.71
2019-01-18T04:26:59.048Z,97.83
2019-01-18T04:27:56.132Z,96.74
2019-01-18T04:28:53.188Z,97.97
2019-01-18T04:29:50.260Z,97.57
2019-01-18T04:30:47.337Z,98.05
2019-01-18T04:31:44.375Z,97.69
2019-01-18T04:32:41.471Z,97.76
2019-01-18T04:33:38.527Z,96.58
2019-01-18T04:34:35.599Z,98.81
2019-01-18T04:35:32.651Z,97.95
2019-01-18T04:36:29.753Z,97.95
2019-01-18T04:37:26.781Z,97.97
2019-01-18T04:38:23.854Z,98.01
2019-01-18T04:39:20.940Z,98.82
2019-01-18T04:40:17.968Z,97.51
2019-01-18T04:41:15.068Z,98.19
2019-01-18T04:42:12.183Z,98.28
2019-01-18T04:43:09.196Z,98.35
2019-01-18T04:44:06.256Z,98.74
2019-01-18T04:45:03.321Z,98.51
2019-01-18T04:46:00.407Z,98.56
2019-01-18T04:46:57.461Z,98.62
2019-01-18T04:47:54.515Z,98.69
2019-01-18T04:48:51.601Z,98.72
2019-01-18T04:49:48.659Z,99.56
2019-01-18T04:50:45.713Z,99.96
2019-01-18T04:51:42.788Z,98.83
2019-01-18T04:52:39.854Z,98.28
2019-01-18T04:53:36.936Z,98.86
2019-01-18T04:54:33.986Z,98.88
2019-01-18T04:55:31.048Z,98.89
2019-01-18T04:56:28.120Z,98.87
2019-01-18T04:57:25.182Z,98.90
2019-01-18T04:58:22.249Z,98.94
2019-01-18T04:59:19.305Z,98.91
2019-01-18T05:00:16.388Z,99.17
2019-01-18T05:01:13.466Z,98.85
2019-01-18T05:02:10.512Z,98.99
2019-01-18T05:03:07.599Z,98.54
2019-01-18T05:04:04.645Z,99.05
2019-01-18T05:05:01.708Z,98.74
2019-01-18T05:05:58.792Z,99.06
2019-01-18T05:06:55.851Z,98.09
2019-01-18T05:07:52.919Z,99.03
2019-01-18T05:08:49.983Z,99.88
2019-01-18T05:09:47.092Z,98.54
2019-01-18T05:10:44.113Z,98.98
2019-01-18T05:11:41.171Z,98.87
2019-01-18T05:12:38.255Z,98.91
2019-01-18T05:13:35.318Z,98.92
2019-01-18T05:14:32.390Z,98.95
2019-01-18T05:15:29.448Z,99.94
2019-01-18T05:16:26.502Z,99.52
2019-01-18T05:17:23.569Z,98.97
2019-01-18T05:18:20.660Z,98.97
2019-01-18T05:19:17.699Z,99.25
2019-01-18T05:20:14.786Z,98.96
2019-01-18T05:21:11.853Z,97.90
2019-01-18T05:22:08.907Z,99.09
2019-01-18T05:23:05.975Z,100.00
2019-01-18T05:24:04.051Z,99.17
2019-01-18T05:25:00.271Z,99.20
2019-01-18T05:25:57.195Z,99.22
2019-01-18T05:26:54.256Z,99.08
2019-01-18T05:27:51.315Z,98.66
2019-01-18T05:28:48.380Z,99.10
2019-01-18T05:29:44.949Z,98.04
2019-01-18T05:30:47.428Z,98.95
2019-01-18T05:31:39.618Z,99.06
2019-01-18T05:32:36.648Z,99.06
2019-01-18T05:33:33.717Z,98.68
2019-01-18T05:34:30.783Z,100.00
2019-01-18T05:35:27.846Z,99.83
2019-01-18T05:36:24.920Z,98.09
2019-01-18T05:37:21.991Z,98.91
2019-01-18T05:38:19.056Z,98.88
2019-01-18T05:39:16.120Z,99.50
2019-01-18T05:40:13.184Z,98.55
2019-01-18T05:41:10.262Z,98.43
2019-01-18T05:42:07.315Z,98.52
2019-01-18T05:43:04.392Z,98.50
2019-01-18T05:44:01.456Z,98.44
2019-01-18T05:44:58.527Z,98.37
2019-01-18T05:45:55.683Z,98.33
2019-01-18T05:46:53.730Z,98.26
2019-01-18T05:47:49.716Z,98.21
2019-01-18T05:48:46.775Z,98.20
2019-01-18T05:49:43.855Z,98.19
2019-01-18T05:50:40.924Z,98.13
2019-01-18T05:51:37.987Z,98.08
2019-01-18T05:52:35.045Z,98.14
2019-01-18T05:53:32.118Z,96.83
2019-01-18T05:54:29.614Z,97.96
2019-01-18T05:55:26.245Z,97.93
2019-01-18T05:56:23.312Z,97.88
2019-01-18T05:57:20.423Z,97.89
2019-01-18T05:58:17.445Z,97.27
2019-01-18T05:59:14.563Z,97.09
2019-01-18T06:00:11.605Z,97.91
2019-01-18T06:01:08.651Z,97.92
2019-01-18T06:02:05.712Z,97.73
2019-01-18T06:03:02.778Z,97.98
2019-01-18T06:03:59.848Z,98.78
2019-01-18T06:04:56.418Z,98.15
2019-01-18T06:05:53.992Z,98.07
2019-01-18T06:06:51.056Z,98.11
2019-01-18T06:07:48.124Z,98.18
2019-01-18T06:08:45.180Z,98.24
2019-01-18T06:09:42.239Z,98.33
2019-01-18T06:10:39.331Z,98.41
2019-01-18T06:11:36.393Z,97.78
2019-01-18T06:12:33.431Z,98.61
2019-01-18T06:13:31.659Z,98.71
2019-01-18T06:14:27.580Z,98.82
2019-01-18T06:15:24.682Z,98.72
2019-01-18T06:16:22.706Z,99.06
2019-01-18T06:17:18.796Z,99.20
2019-01-18T06:18:15.833Z,98.87
2019-01-18T06:19:12.931Z,99.35
2019-01-18T06:20:09.980Z,99.40
2019-01-18T06:21:07.045Z,99.45
2019-01-18T06:22:04.109Z,99.52
2019-01-18T06:23:01.183Z,99.57
2019-01-18T06:23:59.235Z,99.94
2019-01-18T06:24:55.308Z,99.67
2019-01-18T06:25:52.380Z,99.74
2019-01-18T06:26:49.447Z,99.78
2019-01-18T06:27:46.515Z,99.81
2019-01-18T06:28:44.604Z,99.79
2019-01-18T06:29:40.681Z,99.68
2019-01-18T06:30:37.718Z,99.77
2019-01-18T06:31:34.777Z,99.78
2019-01-18T06:32:31.868Z,99.82
2019-01-18T06:33:30.047Z,99.85
2019-01-18T06:34:26.031Z,99.83
2019-01-18T06:35:23.035Z,99.86
2019-01-18T06:36:20.113Z,99.91
2019-01-18T06:37:17.189Z,99.96
2019-01-18T06:38:14.243Z,99.98
2019-01-18T06:39:11.308Z,99.70
2019-01-18T06:40:08.384Z,99.98
2019-01-18T06:41:05.444Z,99.19
2019-01-18T06:42:02.513Z,99.98
2019-01-18T06:42:59.612Z,100.00
2019-01-18T06:43:56.660Z,100.00
2019-01-18T06:44:53.704Z,99.98
2019-01-18T06:45:50.283Z,100.00
2019-01-18T06:46:47.852Z,100.00
2019-01-18T06:47:44.914Z,100.00
2019-01-18T06:48:41.997Z,99.99
2019-01-18T06:49:39.038Z,100.00
2019-01-18T06:50:37.110Z,100.00
2019-01-18T06:51:33.204Z,99.64
2019-01-18T06:52:30.249Z,99.42
2019-01-18T06:53:27.332Z,99.90
2019-01-18T06:54:24.384Z,99.88
2019-01-18T06:55:21.450Z,99.89
2019-01-18T06:56:18.512Z,99.24
2019-01-18T06:57:15.608Z,99.90
2019-01-18T06:58:12.668Z,99.86
2019-01-18T06:59:09.708Z,99.07
2019-01-18T07:00:06.792Z,100.00
2019-01-18T07:01:08.452Z,99.87
2019-01-18T07:02:00.918Z,100.00
2019-01-18T07:02:57.982Z,99.88
2019-01-18T07:03:55.051Z,99.89
2019-01-18T07:04:52.131Z,99.87
2019-01-18T07:05:49.175Z,100.00
2019-01-18T07:06:46.232Z,99.57
2019-01-18T07:07:43.311Z,99.87
2019-01-18T07:08:40.385Z,99.88
2019-01-18T07:09:37.447Z,99.88
2019-01-18T07:10:35.600Z,99.90
2019-01-18T07:11:31.602Z,100.00
2019-01-18T07:12:28.637Z,100.00
2019-01-18T07:13:25.726Z,99.91
2019-01-18T07:14:22.782Z,99.81
2019-01-18T07:15:19.849Z,99.95
2019-01-18T07:16:16.896Z,99.08
2019-01-18T07:17:13.993Z,100.00
2019-01-18T07:18:11.048Z,99.59
2019-01-18T07:19:08.103Z,100.00
2019-01-18T07:20:05.189Z,100.00
2019-01-18T07:21:02.250Z,99.91
2019-01-18T07:21:59.313Z,100.00
2019-01-18T07:22:56.383Z,100.00
2019-01-18T07:23:53.598Z,100.00
2019-01-18T07:24:50.523Z,100.00
2019-01-18T07:25:47.609Z,100.00
2019-01-18T07:26:44.656Z,99.76
2019-01-18T07:27:41.713Z,100.00
2019-01-18T07:28:38.786Z,100.00
2019-01-18T07:29:35.837Z,100.00
2019-01-18T07:30:32.929Z,100.00
2019-01-18T07:31:29.980Z,99.73
2019-01-18T07:32:27.043Z,100.00
2019-01-18T07:33:24.116Z,99.84
2019-01-18T07:34:21.179Z,100.00
2019-01-18T07:35:18.251Z,100.00
2019-01-18T07:36:15.318Z,100.00
2019-01-18T07:37:12.382Z,100.00
2019-01-18T07:38:09.614Z,100.00
2019-01-18T07:39:06.510Z,100.00
2019-01-18T07:40:04.547Z,100.00
2019-01-18T07:41:00.650Z,100.00
2019-01-18T07:41:57.715Z,100.00
2019-01-18T07:42:54.785Z,100.00
2019-01-18T07:43:51.844Z,100.00
2019-01-18T07:44:48.913Z,100.00
2019-01-18T07:45:45.982Z,100.00
2019-01-18T07:46:43.051Z,100.00
2019-01-18T07:47:40.113Z,100.00
2019-01-18T07:48:37.186Z,99.70
2019-01-18T07:49:34.234Z,100.00
2019-01-18T07:50:31.311Z,100.00
2019-01-18T07:51:28.391Z,100.00
2019-01-18T07:52:25.601Z,100.00
2019-01-18T07:53:22.516Z,100.00
2019-01-18T07:54:19.899Z,100.00
2019-01-18T07:55:16.651Z,100.00
2019-01-18T07:56:13.717Z,100.00
2019-01-18T07:57:11.787Z,100.00
2019-01-18T07:58:07.866Z,100.00
2019-01-18T07:59:04.914Z,100.00
2019-01-18T08:00:02.006Z,100.00
2019-01-18T08:00:59.041Z,100.00
2019-01-18T08:01:56.142Z,100.00
2019-01-18T08:02:53.164Z,100.00
2019-01-18T08:03:50.252Z,100.00
2019-01-18T08:04:47.308Z,100.00
2019-01-18T08:05:44.373Z,100.00
2019-01-18T08:06:41.597Z,100.00
2019-01-18T08:07:38.515Z,100.00
2019-01-18T08:08:35.626Z,100.00
2019-01-18T08:09:32.630Z,100.00
2019-01-18T08:10:29.709Z,100.00
2019-01-18T08:11:26.777Z,100.00
2019-01-18T08:12:23.839Z,100.00
2019-01-18T08:13:20.906Z,100.00
2019-01-18T08:14:17.992Z,100.00
2019-01-18T08:15:15.035Z,100.00
2019-01-18T08:16:12.100Z,100.00
2019-01-18T08:17:10.169Z,100.00
2019-01-18T08:18:06.246Z,100.00
2019-01-18T08:19:03.305Z,100.00
2019-01-18T08:20:00.382Z,100.00
2019-01-18T08:20:57.447Z,100.00
2019-01-18T08:21:54.522Z,100.00
2019-01-18T08:22:51.597Z,100.00
2019-01-18T08:23:48.650Z,100.00
2019-01-18T08:24:45.708Z,100.00
2019-01-18T08:25:42.776Z,100.00
2019-01-18T08:26:39.878Z,100.00
2019-01-18T08:27:36.913Z,100.00
2019-01-18T08:28:33.969Z,100.00
2019-01-18T08:29:31.055Z,100.00
2019-01-18T08:30:28.127Z,100.00
2019-01-18T08:31:28.794Z,100.00
2019-01-18T08:32:22.295Z,100.00
2019-01-18T08:33:19.329Z,100.00
2019-01-18T08:34:16.491Z,100.00
2019-01-18T08:35:13.435Z,100.00
2019-01-18T08:36:10.513Z,100.00
2019-01-18T08:37:07.595Z,100.00
2019-01-18T08:38:04.646Z,100.00
2019-01-18T08:39:01.719Z,100.00
2019-01-18T08:39:58.796Z,100.00
2019-01-18T08:40:56.841Z,100.00
2019-01-18T08:41:52.912Z,100.00
2019-01-18T08:42:49.981Z,100.00
2019-01-18T08:43:47.048Z,100.00
2019-01-18T08:44:44.119Z,100.00
2019-01-18T08:45:41.178Z,100.00
2019-01-18T08:46:38.259Z,100.00
2019-01-18T08:47:35.318Z,100.00
2019-01-18T08:48:32.379Z,100.00
2019-01-18T08:49:29.528Z,100.00
2019-01-18T08:50:26.522Z,99.91
2019-01-18T08:51:23.579Z,99.79
2019-01-18T08:52:20.648Z,99.69
2019-01-18T08:53:17.720Z,100.00
2019-01-18T08:54:15.776Z,99.35
2019-01-18T08:55:11.862Z,99.14
2019-01-18T08:56:08.912Z,98.97
2019-01-18T08:57:05.985Z,98.82
2019-01-18T08:58:03.046Z,98.69
2019-01-18T08:59:00.118Z,98.69
2019-01-18T08:59:57.190Z,98.39
2019-01-18T09:00:54.251Z,98.34
2019-01-18T09:01:52.313Z,98.38
2019-01-18T09:02:48.378Z,97.86
2019-01-18T09:03:45.610Z,97.69
2019-01-18T09:04:43.603Z,97.76
2019-01-18T09:05:39.885Z,97.38
2019-01-18T09:06:36.648Z,97.23
2019-01-18T09:07:33.723Z,97.06
2019-01-18T09:08:30.933Z,96.90
2019-01-18T09:09:27.832Z,96.74
2019-01-18T09:10:24.927Z,96.57
2019-01-18T09:11:21.979Z,96.45
2019-01-18T09:12:19.055Z,96.26
2019-01-18T09:13:16.118Z,96.13
2019-01-18T09:14:19.289Z,95.44
2019-01-18T09:15:10.240Z,95.77
2019-01-18T09:16:07.300Z,95.60
2019-01-18T09:17:04.397Z,95.27
2019-01-18T09:18:01.445Z,95.91
2019-01-18T09:18:58.525Z,95.15
2019-01-18T09:19:55.597Z,95.20
2019-01-18T09:20:52.653Z,95.24
2019-01-18T09:21:49.732Z,94.78
2019-01-18T09:22:46.768Z,94.61
2019-01-18T09:23:44.839Z,94.46
2019-01-18T09:24:42.225Z,94.31
2019-01-18T09:25:37.984Z,94.19
2019-01-18T09:26:35.035Z,94.03
2019-01-18T09:27:32.110Z,93.91
2019-01-18T09:28:29.191Z,93.77
2019-01-18T09:29:26.245Z,93.48
2019-01-18T09:30:23.332Z,93.83
2019-01-18T09:31:20.398Z,93.38
2019-01-18T09:32:17.449Z,93.08
2019-01-18T09:33:14.539Z,91.61
2019-01-18T09:34:11.597Z,92.82
2019-01-18T09:35:08.651Z,92.43
2019-01-18T09:36:05.742Z,92.27
2019-01-18T09:37:02.780Z,92.07
2019-01-18T09:37:59.876Z,92.52
2019-01-18T09:38:56.913Z,92.71
2019-01-18T09:39:53.983Z,91.46
2019-01-18T09:40:51.054Z,91.58
2019-01-18T09:41:47.626Z,91.50
2019-01-18T09:42:45.179Z,91.61
2019-01-18T09:43:43.278Z,91.31
2019-01-18T09:44:39.309Z,91.22
2019-01-18T09:45:36.382Z,91.08
2019-01-18T09:46:33.431Z,90.97
2019-01-18T09:47:30.508Z,90.89
2019-01-18T09:48:27.599Z,90.79
2019-01-18T09:49:24.635Z,90.52
2019-01-18T09:50:21.717Z,90.68
2019-01-18T09:51:19.786Z,90.30
2019-01-18T09:52:15.835Z,90.23
2019-01-18T09:53:12.903Z,90.18
2019-01-18T09:54:10.974Z,90.05
2019-01-18T09:55:08.047Z,89.89
2019-01-18T09:56:04.113Z,88.35
2019-01-18T09:57:01.185Z,89.64
2019-01-18T09:57:58.250Z,89.60
2019-01-18T09:58:55.300Z,89.38
2019-01-18T09:59:52.380Z,89.24
2019-01-18T10:00:49.622Z,89.10
2019-01-18T10:01:49.405Z,88.03
2019-01-18T10:02:43.603Z,88.91
2019-01-18T10:03:40.656Z,88.82
2019-01-18T10:04:37.717Z,88.66
2019-01-18T10:05:34.766Z,88.58
2019-01-18T10:06:31.838Z,88.44
2019-01-18T10:07:28.905Z,88.30
2019-01-18T10:08:25.978Z,88.13
2019-01-18T10:09:23.032Z,88.24
2019-01-18T10:10:20.121Z,88.84
2019-01-18T10:11:17.169Z,88.08
2019-01-18T10:12:14.246Z,87.50
2019-01-18T10:13:11.315Z,87.45
2019-01-18T10:14:08.374Z,87.34
2019-01-18T10:15:05.440Z,86.75
2019-01-18T10:16:02.507Z,86.93
2019-01-18T10:16:59.567Z,86.71
2019-01-18T10:18:00.526Z,86.41
2019-01-18T10:18:53.697Z,86.16
2019-01-18T10:19:50.774Z,85.36
2019-01-18T10:20:47.840Z,85.14
2019-01-18T10:21:46.708Z,86.51
2019-01-18T10:22:41.967Z,85.66
2019-01-18T10:23:39.050Z,85.88
2019-01-18T10:24:36.110Z,85.44
2019-01-18T10:25:33.182Z,85.35
2019-01-18T10:26:30.236Z,85.46
2019-01-18T10:27:27.320Z,84.82
2019-01-18T10:28:24.369Z,84.53
2019-01-18T10:29:28.016Z,84.29
2019-01-18T10:30:18.522Z,84.22
2019-01-18T10:31:16.563Z,84.30
2019-01-18T10:32:12.647Z,84.38
2019-01-18T10:33:09.707Z,84.43
2019-01-18T10:34:06.789Z,84.36
2019-01-18T10:35:03.840Z,84.35
2019-01-18T10:36:00.911Z,84.62
2019-01-18T10:36:57.979Z,84.19
2019-01-18T10:37:56.041Z,84.23
2019-01-18T10:38:52.104Z,84.21
2019-01-18T10:39:49.175Z,84.02
2019-01-18T10:40:46.248Z,83.77
2019-01-18T10:41:43.309Z,84.09
2019-01-18T10:42:40.369Z,85.24
2019-01-18T10:43:37.436Z,84.66
2019-01-18T10:44:34.513Z,83.98
2019-01-18T10:45:31.559Z,83.92
2019-01-18T10:46:28.635Z,83.78
2019-01-18T10:47:25.719Z,83.65
2019-01-18T10:48:22.769Z,83.54
2019-01-18T10:49:19.842Z,83.44
2019-01-18T10:50:16.892Z,83.45
2019-01-18T10:51:14.964Z,83.43
2019-01-18T10:52:11.056Z,82.80
2019-01-18T10:53:08.099Z,83.88
2019-01-18T10:54:05.176Z,82.67
2019-01-18T10:55:03.459Z,82.26
2019-01-18T10:55:59.294Z,82.30
2019-01-18T10:56:56.371Z,81.94
2019-01-18T10:57:53.745Z,81.44
2019-01-18T10:58:51.623Z,81.49
2019-01-18T10:59:48.023Z,81.24
2019-01-18T11:00:44.647Z,81.15
2019-01-18T11:01:41.700Z,81.55
2019-01-18T11:02:38.771Z,80.94
2019-01-18T11:03:35.883Z,81.18
2019-01-18T11:04:32.902Z,80.39
2019-01-18T11:05:29.986Z,79.54
2019-01-18T11:06:27.032Z,79.78
2019-01-18T11:07:24.138Z,79.11
2019-01-18T11:08:21.165Z,79.08
2019-01-18T11:09:18.319Z,78.75
2019-01-18T11:10:15.305Z,78.64
2019-01-18T11:11:12.368Z,79.30
2019-01-18T11:12:09.432Z,77.82
2019-01-18T11:13:06.499Z,76.98
2019-01-18T11:14:03.602Z,76.57
2019-01-18T11:15:00.631Z,76.56
2019-01-18T11:15:57.686Z,76.29
2019-01-18T11:16:54.764Z,75.46
2019-01-18T11:17:51.841Z,75.19
2019-01-18T11:18:48.895Z,74.72
2019-01-18T11:19:45.989Z,74.69
2019-01-18T11:20:43.035Z,73.02
2019-01-18T11:21:40.122Z,74.10
2019-01-18T11:22:37.170Z,73.56
2019-01-18T11:23:34.229Z,73.33
2019-01-18T11:24:31.299Z,72.31
2019-01-18T11:25:32.007Z,73.09
2019-01-18T11:26:25.426Z,72.96
2019-01-18T11:27:22.497Z,71.92
2019-01-18T11:28:20.567Z,71.59
2019-01-18T11:29:16.625Z,72.32
2019-01-18T11:30:13.695Z,72.34
2019-01-18T11:31:10.763Z,72.31
2019-01-18T11:32:13.578Z,72.24
2019-01-18T11:33:04.900Z,72.50
2019-01-18T11:34:01.984Z,71.98
2019-01-18T11:34:59.023Z,71.75
2019-01-18T11:35:56.106Z,71.55
2019-01-18T11:36:56.708Z,70.95
2019-01-18T11:37:50.235Z,69.56
2019-01-18T11:38:47.293Z,69.42
2019-01-18T11:39:44.348Z,69.75
2019-01-18T11:40:41.435Z,69.37
2019-01-18T11:41:38.490Z,69.19
2019-01-18T11:42:35.631Z,69.29
2019-01-18T11:43:32.633Z,69.23
2019-01-18T11:44:29.699Z,69.43
2019-01-18T11:45:26.746Z,69.54
2019-01-18T11:46:23.824Z,69.64
2019-01-18T11:47:20.892Z,69.79
2019-01-18T11:48:17.962Z,69.93
2019-01-18T11:49:15.043Z,69.29
2019-01-18T11:50:12.101Z,70.02
2019-01-18T11:51:08.657Z,70.21
2019-01-18T11:52:07.205Z,69.57
2019-01-18T11:53:03.284Z,69.40
2019-01-18T11:54:00.356Z,69.92
2019-01-18T11:54:57.425Z,67.37
2019-01-18T11:55:53.987Z,68.18
2019-01-18T11:56:51.599Z,67.69
2019-01-18T11:57:48.633Z,67.21
2019-01-18T11:58:46.698Z,66.70
2019-01-18T11:59:42.759Z,66.13
2019-01-18T12:00:39.811Z,65.55
2019-01-18T12:01:36.888Z,64.88
2019-01-18T12:02:33.443Z,63.58
2019-01-18T12:03:31.013Z,63.33
2019-01-18T12:04:28.072Z,62.56
2019-01-18T12:05:24.641Z,61.84
2019-01-18T12:06:22.204Z,61.16
2019-01-18T12:07:19.269Z,61.18
2019-01-18T12:08:15.843Z,60.13
2019-01-18T12:09:13.413Z,59.09
2019-01-18T12:10:10.465Z,58.23
2019-01-18T12:11:07.620Z,56.70
2019-01-18T12:12:04.603Z,55.16